createdAt,value
2017-07-30T07:09:32.482Z,21.30
2017-07-30T07:11:59.328Z,21.30
2017-07-30T07:14:26.344Z,21.40
2017-07-30T07:16:53.613Z,21.40
2017-07-30T07:19:20.918Z,21.40
2017-07-30T07:21:47.707Z,21.40
2017-07-30T07:24:14.590Z,21.50
2017-07-30T07:26:41.368Z,21.60
2017-07-30T07:29:08.164Z,21.70
2017-07-30T07:31:35.016Z,21.80
2017-07-30T07:34:01.938Z,21.90
2017-07-30T07:36:28.716Z,22.00
2017-07-30T07:38:57.083Z,22.10
2017-07-30T07:41:23.953Z,22.10
2017-07-30T07:43:50.747Z,22.10
2017-07-30T07:46:17.564Z,22.20
2017-07-30T07:48:44.299Z,22.10
2017-07-30T07:51:11.248Z,22.20
2017-07-30T07:53:38.209Z,22.30
2017-07-30T07:56:06.240Z,22.60
2017-07-30T07:58:33.111Z,22.60
2017-07-30T08:01:01.196Z,22.90
2017-07-30T08:03:28.033Z,22.90
2017-07-30T08:05:55.032Z,23.00
2017-07-30T08:08:22.241Z,23.20
2017-07-30T08:10:48.980Z,23.40
2017-07-30T08:13:16.081Z,23.50
2017-07-30T08:15:46.230Z,23.50
2017-07-30T08:18:13.376Z,23.60
2017-07-30T08:20:41.026Z,23.80
2017-07-30T08:23:08.812Z,23.90
2017-07-30T08:25:36.030Z,23.90
2017-07-30T08:28:03.419Z,24.00
2017-07-30T08:30:34.119Z,24.10
2017-07-30T08:33:03.168Z,24.30
2017-07-30T08:35:30.465Z,24.30
2017-07-30T08:37:58.104Z,24.60
2017-07-30T08:40:24.920Z,24.50
2017-07-30T08:42:52.342Z,24.60
2017-07-30T08:45:20.528Z,24.80
2017-07-30T08:47:48.705Z,24.80
2017-07-30T08:50:15.601Z,24.90
2017-07-30T08:52:42.425Z,24.90
2017-07-30T08:55:12.569Z,25.00
2017-07-30T08:57:39.444Z,25.10
2017-07-30T09:00:06.259Z,25.30
2017-07-30T09:02:36.724Z,25.50
2017-07-30T09:05:07.835Z,25.50
2017-07-30T09:07:40.446Z,25.60
2017-07-30T09:10:07.231Z,25.70
2017-07-30T09:12:34.513Z,25.70
2017-07-30T09:15:01.920Z,25.80
2017-07-30T09:17:32.708Z,25.90
2017-07-30T09:20:02.591Z,25.90
2017-07-30T09:22:30.962Z,26.00
2017-07-30T09:24:59.110Z,26.10
2017-07-30T09:27:26.592Z,26.20
2017-07-30T09:29:53.480Z,26.30
2017-07-30T09:32:24.145Z,26.40
2017-07-30T09:34:51.070Z,26.50
2017-07-30T09:37:18.020Z,26.40
2017-07-30T09:39:47.058Z,26.60
2017-07-30T09:42:15.407Z,26.70
2017-07-30T09:44:45.598Z,26.80
2017-07-30T09:47:13.775Z,26.80
2017-07-30T09:49:46.915Z,26.90
2017-07-30T09:52:17.332Z,27.10
2017-07-30T09:54:47.921Z,27.10
2017-07-30T09:57:16.144Z,27.10
2017-07-30T09:59:46.914Z,27.10
2017-07-30T10:02:17.140Z,27.20
2017-07-30T10:04:44.452Z,27.20
2017-07-30T10:07:20.011Z,27.20
2017-07-30T10:09:48.453Z,27.20
2017-07-30T10:12:22.190Z,27.50
2017-07-30T10:14:52.652Z,27.40
2017-07-30T10:17:26.898Z,27.60
2017-07-30T10:19:57.461Z,27.70
2017-07-30T10:22:27.910Z,27.90
2017-07-30T10:24:56.108Z,28.00
2017-07-30T10:27:31.857Z,28.20
2017-07-30T10:30:02.517Z,28.20
2017-07-30T10:32:33.646Z,28.30
2017-07-30T10:35:12.908Z,28.50
2017-07-30T10:37:42.881Z,28.60
2017-07-30T10:40:11.626Z,28.60
2017-07-30T10:42:41.576Z,28.80
2017-07-30T10:50:43.789Z,28.90
2017-07-30T11:02:07.106Z,29.30
2017-07-30T11:04:37.168Z,29.40
2017-07-30T11:07:10.036Z,29.40
2017-07-30T11:12:23.250Z,29.50
2017-07-30T11:14:50.149Z,29.70
2017-07-30T11:17:17.152Z,29.70
2017-07-30T11:19:44.440Z,29.80
2017-07-30T11:22:11.320Z,29.80
2017-07-30T11:24:40.819Z,29.70
2017-07-30T11:27:17.027Z,29.80
2017-07-30T11:29:51.484Z,29.90
2017-07-30T11:32:19.231Z,29.90
2017-07-30T11:34:46.148Z,29.90
2017-07-30T11:51:57.007Z,30.00
2017-07-30T11:54:23.912Z,30.10
2017-07-30T11:56:51.908Z,30.50
2017-07-30T11:59:18.818Z,30.50
2017-07-30T12:01:46.433Z,30.60
2017-07-30T12:04:13.269Z,30.60
2017-07-30T12:06:40.277Z,30.70
2017-07-30T12:09:07.118Z,30.60
2017-07-30T12:11:33.924Z,30.60
2017-07-30T12:14:00.863Z,30.60
2017-07-30T12:16:27.801Z,30.70
2017-07-30T12:18:55.562Z,30.70
2017-07-30T12:21:23.978Z,30.60
2017-07-30T12:23:51.617Z,30.80
2017-07-30T12:26:22.603Z,30.80
2017-07-30T12:28:50.025Z,30.60
2017-07-30T12:31:17.929Z,30.70
2017-07-30T12:34:15.288Z,30.80
2017-07-30T12:36:43.089Z,31.10
2017-07-30T12:39:10.041Z,31.30
2017-07-30T12:41:37.020Z,31.20
2017-07-30T12:44:03.949Z,31.30
2017-07-30T12:46:31.621Z,31.50
2017-07-30T12:48:58.589Z,31.50
2017-07-30T12:51:25.519Z,31.60
2017-07-30T12:53:52.396Z,31.70
2017-07-30T12:56:19.254Z,31.80
2017-07-30T12:58:46.462Z,31.90
2017-07-30T13:01:13.944Z,31.80
2017-07-30T13:03:41.610Z,31.80
2017-07-30T13:06:08.444Z,32.00
2017-07-30T13:08:35.359Z,32.00
2017-07-30T13:11:05.569Z,32.10
2017-07-30T13:13:32.459Z,32.20
2017-07-30T13:15:59.362Z,32.10
2017-07-30T13:18:27.594Z,32.10
2017-07-30T13:20:55.476Z,31.80
2017-07-30T13:26:23.212Z,30.80
2017-07-30T13:28:50.892Z,30.10
2017-07-30T13:31:21.349Z,30.10
2017-07-30T13:33:48.767Z,30.00
2017-07-30T13:36:15.640Z,29.60
2017-07-30T13:38:42.489Z,29.50
2017-07-30T13:41:09.408Z,29.30
2017-07-30T13:43:54.404Z,29.10
2017-07-30T14:23:57.747Z,27.30
2017-07-30T14:29:39.714Z,27.30
2017-07-30T14:43:39.158Z,27.30
2017-07-30T14:48:58.212Z,27.10
2017-07-30T14:54:33.661Z,27.00
2017-07-30T14:57:01.264Z,26.90
2017-07-30T14:59:31.778Z,26.80
2017-07-30T15:01:58.630Z,26.70
2017-07-30T15:04:27.810Z,26.70
2017-07-30T15:06:54.686Z,26.70
2017-07-30T15:09:21.561Z,26.60
2017-07-30T15:11:51.786Z,26.40
2017-07-30T15:17:11.548Z,26.20
2017-07-30T15:19:38.511Z,26.20
2017-07-30T15:22:06.388Z,26.10
2017-07-30T15:24:34.664Z,26.10
2017-07-30T15:27:01.620Z,26.00
2017-07-30T15:29:40.800Z,25.90
2017-07-30T15:32:08.090Z,25.90
2017-07-30T15:37:28.179Z,25.70
2017-07-30T15:42:49.016Z,25.50
2017-07-30T15:45:16.593Z,25.50
2017-07-30T15:47:49.820Z,25.40
2017-07-30T15:50:18.874Z,25.40
2017-07-30T15:52:45.795Z,25.40
2017-07-30T15:55:12.697Z,25.30
2017-07-30T15:58:00.433Z,25.30
2017-07-30T16:00:27.351Z,25.20
2017-07-30T16:02:54.379Z,25.20
2017-07-30T16:05:21.652Z,25.10
2017-07-30T16:07:48.551Z,25.10
2017-07-30T16:10:15.545Z,25.10
2017-07-30T16:12:45.052Z,25.10
2017-07-30T16:15:12.140Z,25.00
2017-07-30T16:17:39.429Z,25.00
2017-07-30T16:20:06.353Z,24.80
2017-07-30T16:22:33.302Z,25.00
2017-07-30T16:25:00.186Z,24.80
2017-07-30T16:27:28.504Z,24.90
2017-07-30T16:29:55.424Z,24.80
2017-07-30T16:32:22.297Z,24.90
2017-07-30T16:34:53.276Z,24.90
2017-07-30T16:37:20.906Z,24.80
2017-07-30T16:39:48.249Z,24.80
2017-07-30T16:42:16.142Z,24.70
2017-07-30T16:44:43.110Z,24.60
2017-07-30T16:47:10.920Z,24.60
2017-07-30T16:49:37.765Z,24.60
2017-07-30T16:52:05.927Z,24.60
2017-07-30T16:54:32.891Z,24.60
2017-07-30T16:56:59.792Z,24.50
2017-07-30T16:59:26.721Z,24.50
2017-07-30T17:01:53.593Z,24.50
2017-07-30T17:04:24.518Z,24.40
2017-07-30T17:06:51.482Z,24.30
2017-07-30T17:09:18.718Z,24.30
2017-07-30T17:11:49.244Z,24.20
2017-07-30T17:14:16.837Z,24.10
2017-07-30T17:16:44.304Z,24.00
2017-07-30T17:19:11.979Z,24.00
2017-07-30T17:21:38.923Z,23.90
2017-07-30T17:24:06.357Z,24.00
2017-07-30T17:26:34.688Z,24.00
2017-07-30T17:29:01.985Z,24.00
2017-07-30T17:31:29.359Z,24.00
2017-07-30T17:33:56.362Z,24.00
2017-07-30T17:36:23.293Z,24.00
2017-07-30T17:38:50.256Z,24.20
2017-07-30T17:41:17.184Z,24.30
2017-07-30T17:43:44.949Z,24.40
2017-07-30T17:46:12.120Z,24.30
2017-07-30T17:48:39.362Z,24.20
2017-07-30T17:51:07.016Z,24.10
2017-07-30T17:53:35.459Z,24.10
2017-07-30T17:56:02.301Z,24.10
2017-07-30T17:58:29.884Z,24.00
2017-07-30T18:00:56.749Z,23.90
2017-07-30T18:03:26.330Z,23.90
2017-07-30T18:05:53.475Z,23.80
2017-07-30T18:08:20.340Z,23.70
2017-07-30T18:10:47.249Z,23.60
2017-07-30T18:13:14.446Z,23.50
2017-07-30T18:15:41.765Z,23.40
2017-07-30T18:18:08.620Z,23.30
2017-07-30T18:20:35.947Z,23.20
2017-07-30T18:23:02.954Z,23.00
2017-07-30T18:25:30.853Z,22.80
2017-07-30T18:27:58.125Z,22.80
2017-07-30T18:30:25.685Z,22.70
2017-07-30T18:32:52.545Z,22.70
2017-07-30T18:35:22.172Z,22.60
2017-07-30T18:37:49.557Z,22.50
2017-07-30T18:40:16.856Z,22.40
2017-07-30T18:42:43.831Z,22.40
2017-07-30T18:45:11.453Z,22.30
2017-07-30T18:47:40.476Z,22.20
2017-07-30T18:50:07.927Z,22.20
2017-07-30T18:52:35.515Z,22.10
2017-07-30T18:55:03.489Z,22.00
2017-07-30T18:57:31.912Z,21.90
2017-07-30T19:00:17.452Z,21.90
2017-07-30T19:05:30.254Z,21.60
2017-07-30T19:08:01.901Z,21.30
2017-07-30T19:10:28.892Z,21.30
2017-07-30T19:12:55.731Z,21.30
2017-07-30T19:15:22.505Z,21.20
2017-07-30T19:17:49.344Z,21.20
2017-07-30T19:20:16.264Z,21.10
2017-07-30T19:22:43.620Z,21.10
2017-07-30T19:25:10.411Z,21.00
2017-07-30T19:27:37.916Z,21.00
2017-07-30T19:30:05.363Z,20.90
2017-07-30T19:32:32.853Z,20.90
2017-07-30T19:34:59.683Z,20.90
2017-07-30T19:37:27.616Z,20.80
2017-07-30T19:39:54.780Z,20.80
2017-07-30T19:42:26.472Z,20.70
2017-07-30T19:44:54.371Z,20.60
2017-07-30T19:47:22.804Z,20.60
2017-07-30T19:49:51.280Z,20.60
2017-07-30T19:52:19.682Z,20.50
2017-07-30T19:54:46.784Z,20.40
2017-07-30T19:57:14.327Z,20.40
2017-07-30T19:59:42.479Z,20.30
2017-07-30T20:04:45.709Z,20.10
2017-07-30T20:07:13.222Z,20.00
2017-07-30T20:09:41.522Z,20.00
2017-07-30T20:12:16.335Z,20.00
2017-07-30T20:20:16.174Z,19.90
2017-07-30T20:22:43.479Z,19.80
2017-07-30T20:25:17.466Z,19.80
2017-07-30T20:27:44.877Z,19.80
2017-07-30T20:30:17.921Z,19.70
2017-07-30T20:32:45.436Z,19.80
2017-07-30T20:35:12.381Z,19.70
2017-07-30T20:37:40.226Z,19.70
2017-07-30T20:40:07.452Z,19.70
2017-07-30T20:42:34.360Z,19.70
2017-07-30T20:45:01.276Z,19.70
2017-07-30T20:47:28.363Z,19.60
2017-07-30T20:49:55.261Z,19.60
2017-07-30T20:52:22.935Z,19.50
2017-07-30T20:54:50.981Z,19.50
2017-07-30T20:57:17.851Z,19.50
2017-07-30T20:59:44.765Z,19.50
2017-07-30T21:02:11.706Z,19.40
2017-07-30T21:04:39.379Z,19.40
2017-07-30T21:07:07.106Z,19.30
2017-07-30T21:09:35.271Z,19.30
2017-07-30T21:12:02.756Z,19.30
2017-07-30T21:14:30.716Z,19.30
2017-07-30T21:16:58.396Z,19.30
2017-07-30T21:19:25.462Z,19.20
2017-07-30T21:24:41.049Z,19.20
2017-07-30T21:27:09.150Z,19.10
2017-07-30T21:29:36.083Z,19.10
2017-07-30T21:32:03.298Z,19.10
2017-07-30T21:34:30.423Z,19.10
2017-07-30T21:36:57.309Z,19.20
2017-07-30T21:39:24.264Z,19.20
2017-07-30T21:41:51.189Z,19.20
2017-07-30T21:44:18.252Z,19.20
2017-07-30T21:46:46.220Z,19.30
2017-07-30T21:49:13.334Z,19.30
2017-07-30T21:51:40.243Z,19.30
2017-07-30T21:54:07.268Z,19.30
2017-07-30T21:56:34.396Z,19.40
2017-07-30T21:59:01.655Z,19.40
2017-07-30T22:01:28.692Z,19.50
2017-07-30T22:03:56.425Z,19.60
2017-07-30T22:06:23.931Z,19.70
2017-07-30T22:08:50.987Z,19.90
2017-07-30T22:11:19.712Z,19.90
2017-07-30T22:13:46.819Z,20.00
2017-07-30T22:16:14.158Z,20.10
2017-07-30T22:18:41.215Z,20.10
2017-07-30T22:21:08.166Z,20.10
2017-07-30T22:23:35.073Z,20.00
2017-07-30T22:26:02.004Z,20.00
2017-07-30T22:28:29.678Z,20.10
2017-07-30T22:30:56.705Z,20.10
2017-07-30T22:33:24.338Z,20.10
2017-07-30T22:35:51.366Z,20.10
2017-07-30T22:38:18.347Z,20.10
2017-07-30T22:40:45.323Z,20.00
2017-07-30T22:43:12.579Z,20.00
2017-07-30T22:45:39.867Z,19.90
2017-07-30T22:48:06.888Z,19.90
2017-07-30T22:50:39.571Z,20.00
2017-07-30T22:53:06.762Z,20.00
2017-07-30T22:55:33.690Z,20.00
2017-07-30T22:58:00.814Z,19.90
2017-07-30T23:00:27.742Z,19.90
2017-07-30T23:02:54.648Z,19.90
2017-07-30T23:05:22.327Z,19.80
